Time;durP1;ratioP1;P1;durP2;ratioP2;P2;SDS_P1;SDS_P2;PMS_P1;PMS_P2;Temp;Humidity;BMP_temperature;BMP_pressure;BME280_temperature;BME280_humidity;BME280_pressure;Samples;Min_cycle;Max_cycle;Signal;HPM_P1;HPM_P2
2024/01/09 00:02:06;;;;;;;9.05;2.25;;;;;;;;;;4960807;28;20046;-70
2024/01/09 00:04:33;;;;;;;4.80;1.95;;;;;;;;;;4966537;28;20051;-70
2024/01/09 00:07:01;;;;;;;9.25;1.88;;;;;;;;;;4970571;28;20046;-70
2024/01/09 00:09:29;;;;;;;7.55;2.20;;;;;;;;;;4953872;28;20062;-70
2024/01/09 00:11:56;;;;;;;4.68;1.75;;;;;;;;;;4968999;28;20053;-70
2024/01/09 00:14:23;;;;;;;5.07;2.17;;;;;;;;;;4969599;28;20461;-70
2024/01/09 00:16:50;;;;;;;4.15;1.92;;;;;;;;;;4968141;28;20090;-70
2024/01/09 00:19:18;;;;;;;5.05;1.95;;;;;;;;;;4970277;28;20061;-70
2024/01/09 00:21:46;;;;;;;5.00;1.77;;;;;;;;;;4951951;28;20073;-70
2024/01/09 00:24:14;;;;;;;6.80;1.95;;;;;;;;;;4969905;28;20163;-70
2024/01/09 00:26:42;;;;;;;7.40;2.70;;;;;;;;;;4969686;28;20061;-70
2024/01/09 00:29:09;;;;;;;5.95;2.22;;;;;;;;;;4969143;28;20486;-70
2024/01/09 00:31:37;;;;;;;7.03;1.80;;;;;;;;;;4964581;28;20527;-70
2024/01/09 00:34:04;;;;;;;5.90;2.20;;;;;;;;;;4952658;28;20054;-70
2024/01/09 00:36:31;;;;;;;6.53;2.38;;;;;;;;;;4952477;28;20055;-70
2024/01/09 00:38:58;;;;;;;4.75;2.13;;;;;;;;;;4968165;28;20074;-70
2024/01/09 00:41:27;;;;;;;5.60;2.30;;;;;;;;;;4970057;28;20502;-70
2024/01/09 00:43:54;;;;;;;8.82;2.13;;;;;;;;;;4968699;28;20489;-70
2024/01/09 00:46:22;;;;;;;6.18;2.03;;;;;;;;;;4970110;28;20054;-70
2024/01/09 00:48:49;;;;;;;4.55;2.08;;;;;;;;;;4970420;28;20090;-70
2024/01/09 00:51:16;;;;;;;6.18;2.20;;;;;;;;;;4964066;28;20523;-70
2024/01/09 00:53:43;;;;;;;6.43;1.90;;;;;;;;;;4966928;28;20050;-70
2024/01/09 00:56:10;;;;;;;4.63;2.20;;;;;;;;;;4970005;28;20405;-70
2024/01/09 00:58:39;;;;;;;4.78;1.85;;;;;;;;;;4968329;28;20078;-70
2024/01/09 01:01:06;;;;;;;4.85;1.67;;;;;;;;;;4968644;28;20114;-70
2024/01/09 01:03:34;;;;;;;4.85;2.03;;;;;;;;;;4970180;28;20138;-70
2024/01/09 01:06:01;;;;;;;4.72;1.67;;;;;;;;;;4969929;28;20708;-70
2024/01/09 01:08:28;;;;;;;4.78;1.92;;;;;;;;;;4969714;28;20043;-70
2024/01/09 01:10:55;;;;;;;5.18;1.70;;;;;;;;;;4967021;28;20043;-70
2024/01/09 01:13:23;;;;;;;5.10;2.03;;;;;;;;;;4969919;28;20058;-70
2024/01/09 01:15:51;;;;;;;5.25;1.85;;;;;;;;;;4968037;28;20055;-70
2024/01/09 01:18:19;;;;;;;5.63;2.33;;;;;;;;;;4966883;28;20061;-70
2024/01/09 01:20:46;;;;;;;4.45;1.92;;;;;;;;;;4969668;28;20078;-70
2024/01/09 01:23:14;;;;;;;7.35;1.75;;;;;;;;;;4942118;28;20057;-70
2024/01/09 01:25:41;;;;;;;6.07;1.70;;;;;;;;;;4968473;28;20561;-70
2024/01/09 01:28:10;;;;;;;5.50;1.58;;;;;;;;;;4970606;28;20062;-70
2024/01/09 01:30:37;;;;;;;6.80;1.90;;;;;;;;;;4951917;28;20114;-70
2024/01/09 01:33:06;;;;;;;6.50;1.80;;;;;;;;;;4968689;28;20046;-70
2024/01/09 01:35:33;;;;;;;4.32;1.60;;;;;;;;;;4955693;28;20409;-70
2024/01/09 01:38:00;;;;;;;5.53;2.00;;;;;;;;;;4968389;28;20049;-70
2024/01/09 01:40:27;;;;;;;4.82;2.00;;;;;;;;;;4963739;28;20043;-70
2024/01/09 01:42:57;;;;;;;8.68;1.80;;;;;;;;;;4963888;28;20534;-71
2024/01/09 01:45:24;;;;;;;5.20;1.60;;;;;;;;;;4965216;28;20051;-70
2024/01/09 01:47:52;;;;;;;7.78;2.30;;;;;;;;;;4962278;28;20105;-71
2024/01/09 01:50:21;;;;;;;4.78;1.85;;;;;;;;;;4964849;28;20058;-70
2024/01/09 01:52:49;;;;;;;4.13;1.95;;;;;;;;;;4970837;28;20097;-70
2024/01/09 01:55:16;;;;;;;3.85;1.80;;;;;;;;;;4973179;28;20062;-70
2024/01/09 01:57:44;;;;;;;3.65;1.80;;;;;;;;;;4970457;28;20047;-70
2024/01/09 02:00:12;;;;;;;4.28;1.80;;;;;;;;;;4955982;28;20061;-70
2024/01/09 02:02:39;;;;;;;7.95;2.20;;;;;;;;;;4969910;28;20055;-70
2024/01/09 02:05:07;;;;;;;5.60;1.80;;;;;;;;;;4961755;28;20082;-70
2024/01/09 02:07:37;;;;;;;9.60;2.38;;;;;;;;;;4967667;28;20051;-70
2024/01/09 02:10:05;;;;;;;9.20;1.92;;;;;;;;;;4953227;28;20066;-70
2024/01/09 02:12:32;;;;;;;5.10;1.92;;;;;;;;;;4966260;28;20050;-70
2024/01/09 02:14:59;;;;;;;6.85;1.98;;;;;;;;;;4971233;28;20490;-70
2024/01/09 02:17:27;;;;;;;4.43;1.60;;;;;;;;;;4969244;28;20055;-70
2024/01/09 02:19:54;;;;;;;4.82;1.58;;;;;;;;;;4967479;28;20478;-70
2024/01/09 02:22:21;;;;;;;4.30;1.70;;;;;;;;;;4950573;28;20067;-70
2024/01/09 02:24:50;;;;;;;8.43;1.85;;;;;;;;;;4972058;28;20393;-70
2024/01/09 02:27:20;;;;;;;4.45;1.75;;;;;;;;;;4971964;28;20496;-70
2024/01/09 02:29:50;;;;;;;4.35;1.88;;;;;;;;;;4953814;28;20593;-70
2024/01/09 02:32:18;;;;;;;5.43;1.92;;;;;;;;;;4953717;28;20418;-70
2024/01/09 02:34:46;;;;;;;6.93;1.92;;;;;;;;;;4966658;28;20475;-70
2024/01/09 02:37:13;;;;;;;7.32;2.03;;;;;;;;;;4965326;28;20065;-70
2024/01/09 02:39:41;;;;;;;4.80;1.60;;;;;;;;;;4964473;28;20057;-70
2024/01/09 02:42:08;;;;;;;6.00;1.85;;;;;;;;;;4971799;28;20112;-71
2024/01/09 02:44:35;;;;;;;8.23;1.85;;;;;;;;;;4964884;28;21579;-70
2024/01/09 02:47:04;;;;;;;4.80;1.95;;;;;;;;;;4971480;28;20964;-70
2024/01/09 02:49:31;;;;;;;5.05;1.98;;;;;;;;;;4969739;28;20073;-70
2024/01/09 02:51:59;;;;;;;5.47;2.03;;;;;;;;;;4965919;28;20043;-70
2024/01/09 02:54:26;;;;;;;5.35;1.98;;;;;;;;;;4949871;28;20051;-71
2024/01/09 02:56:53;;;;;;;4.18;1.70;;;;;;;;;;4970186;28;20065;-70
2024/01/09 02:59:19;;;;;;;5.63;2.38;;;;;;;;;;4965233;28;20047;-71
2024/01/09 03:01:47;;;;;;;5.82;1.77;;;;;;;;;;4965562;28;20379;-70
2024/01/09 03:04:15;;;;;;;5.82;1.92;;;;;;;;;;4954060;28;20050;-70
2024/01/09 03:06:43;;;;;;;4.13;1.85;;;;;;;;;;4970901;28;20059;-70
2024/01/09 03:09:11;;;;;;;9.35;2.28;;;;;;;;;;4953309;28;20055;-70
2024/01/09 03:11:38;;;;;;;6.13;2.08;;;;;;;;;;4953970;28;20082;-71
2024/01/09 03:14:05;;;;;;;7.82;1.90;;;;;;;;;;4963751;28;20039;-70
2024/01/09 03:16:33;;;;;;;4.30;1.33;;;;;;;;;;4970999;28;20399;-70
2024/01/09 03:19:00;;;;;;;6.22;1.90;;;;;;;;;;4970084;28;20055;-70
2024/01/09 03:21:28;;;;;;;8.35;1.90;;;;;;;;;;4955654;28;20090;-70
2024/01/09 03:23:56;;;;;;;6.32;1.73;;;;;;;;;;4953800;28;20058;-71
2024/01/09 03:26:23;;;;;;;5.50;1.98;;;;;;;;;;4968226;28;20470;-70
2024/01/09 03:28:50;;;;;;;5.97;1.65;;;;;;;;;;4968642;28;20162;-70
2024/01/09 03:31:21;;;;;;;8.73;1.70;;;;;;;;;;4971722;28;20083;-70
2024/01/09 03:33:48;;;;;;;4.07;1.88;;;;;;;;;;4971136;28;20047;-71
2024/01/09 03:36:15;;;;;;;5.22;1.52;;;;;;;;;;4968811;28;20102;-70
2024/01/09 03:38:44;;;;;;;5.72;1.63;;;;;;;;;;4969769;28;20332;-71
2024/01/09 03:41:12;;;;;;;6.68;2.08;;;;;;;;;;4971973;28;20134;-71
2024/01/09 03:43:39;;;;;;;3.33;1.50;;;;;;;;;;4969405;28;20054;-71
2024/01/09 03:46:06;;;;;;;5.65;1.65;;;;;;;;;;4958742;28;20051;-71
2024/01/09 03:48:33;;;;;;;5.38;1.88;;;;;;;;;;4971020;28;20074;-70
2024/01/09 03:51:01;;;;;;;4.78;1.60;;;;;;;;;;4970384;28;20709;-70
2024/01/09 03:53:28;;;;;;;7.70;1.95;;;;;;;;;;4969352;28;20055;-71
2024/01/09 03:55:57;;;;;;;3.88;1.83;;;;;;;;;;4967897;28;20050;-71
2024/01/09 03:58:24;;;;;;;9.13;1.77;;;;;;;;;;4951127;28;20055;-70
2024/01/09 04:00:52;;;;;;;4.38;1.38;;;;;;;;;;4966867;28;20043;-70
2024/01/09 04:03:19;;;;;;;6.38;1.98;;;;;;;;;;4971503;28;20081;-71
2024/01/09 04:05:47;;;;;;;4.55;1.50;;;;;;;;;;4974152;28;20042;-71
2024/01/09 04:08:14;;;;;;;5.82;1.92;;;;;;;;;;4970275;28;20054;-71
2024/01/09 04:10:42;;;;;;;4.97;1.58;;;;;;;;;;4968821;28;20490;-71
2024/01/09 04:13:10;;;;;;;3.47;1.45;;;;;;;;;;4953127;28;20055;-71
2024/01/09 04:15:37;;;;;;;4.07;1.55;;;;;;;;;;4970196;28;20058;-71
2024/01/09 04:18:05;;;;;;;4.85;1.60;;;;;;;;;;4953655;28;20081;-71
2024/01/09 04:20:32;;;;;;;5.15;1.70;;;;;;;;;;4952433;28;20042;-71
2024/01/09 04:23:00;;;;;;;5.30;1.77;;;;;;;;;;4970228;28;20058;-71
2024/01/09 04:25:27;;;;;;;7.55;1.52;;;;;;;;;;4968816;28;20047;-71
2024/01/09 04:27:54;;;;;;;6.78;1.60;;;;;;;;;;4954118;28;20428;-71
2024/01/09 04:30:23;;;;;;;5.53;1.52;;;;;;;;;;4970118;28;20050;-70
2024/01/09 04:32:50;;;;;;;3.35;1.30;;;;;;;;;;4965955;28;20043;-71
2024/01/09 04:35:17;;;;;;;4.60;1.27;;;;;;;;;;4969471;28;20050;-70
2024/01/09 04:37:45;;;;;;;7.22;1.70;;;;;;;;;;4969327;28;20070;-70
2024/01/09 04:40:13;;;;;;;5.75;1.52;;;;;;;;;;4952861;28;20058;-71
2024/01/09 04:42:40;;;;;;;5.03;1.33;;;;;;;;;;4951514;28;20090;-70
2024/01/09 04:45:08;;;;;;;6.07;1.60;;;;;;;;;;4968800;28;20402;-70
2024/01/09 04:47:36;;;;;;;4.68;1.52;;;;;;;;;;4969078;28;20390;-70
2024/01/09 04:50:04;;;;;;;6.10;1.63;;;;;;;;;;4965433;28;20082;-71
2024/01/09 04:52:31;;;;;;;6.10;1.70;;;;;;;;;;4970087;28;20059;-71
2024/01/09 04:54:58;;;;;;;7.25;1.80;;;;;;;;;;4948646;28;20054;-70
2024/01/09 04:57:25;;;;;;;4.43;1.35;;;;;;;;;;4966325;28;20490;-70
2024/01/09 04:59:53;;;;;;;4.75;1.58;;;;;;;;;;4968189;28;20047;-70
2024/01/09 05:02:20;;;;;;;4.80;1.50;;;;;;;;;;4968749;28;20573;-70
2024/01/09 05:04:49;;;;;;;5.95;1.67;;;;;;;;;;4968362;28;20530;-70
2024/01/09 05:07:16;;;;;;;7.28;1.70;;;;;;;;;;4968812;28;20379;-70
2024/01/09 05:09:43;;;;;;;5.82;1.92;;;;;;;;;;4974210;28;20441;-70
2024/01/09 05:12:10;;;;;;;3.55;1.50;;;;;;;;;;4968911;28;20077;-71
2024/01/09 05:14:38;;;;;;;5.57;1.73;;;;;;;;;;4966516;28;20051;-70
2024/01/09 05:17:05;;;;;;;4.45;1.80;;;;;;;;;;4968045;28;20141;-71
2024/01/09 05:19:32;;;;;;;6.10;1.73;;;;;;;;;;4968996;28;20101;-71
2024/01/09 05:22:01;;;;;;;7.18;2.00;;;;;;;;;;4951912;28;20055;-71
2024/01/09 05:24:28;;;;;;;4.72;1.75;;;;;;;;;;4974112;28;20055;-71
2024/01/09 05:26:59;;;;;;;5.03;1.52;;;;;;;;;;4963173;28;20410;-71
2024/01/09 05:29:26;;;;;;;6.03;1.77;;;;;;;;;;4971307;28;20051;-71
2024/01/09 05:31:53;;;;;;;3.75;1.80;;;;;;;;;;4970953;28;20058;-71
2024/01/09 05:34:20;;;;;;;3.78;1.65;;;;;;;;;;4950834;28;20086;-71
2024/01/09 05:36:48;;;;;;;5.85;1.85;;;;;;;;;;4970194;28;20393;-70
2024/01/09 05:39:18;;;;;;;5.03;2.13;;;;;;;;;;4970499;28;20058;-70
2024/01/09 05:41:45;;;;;;;6.63;1.58;;;;;;;;;;4954595;28;20406;-70
2024/01/09 05:44:12;;;;;;;4.55;1.77;;;;;;;;;;4956158;28;20047;-71
2024/01/09 05:46:40;;;;;;;6.68;1.80;;;;;;;;;;4972414;28;20413;-71
2024/01/09 05:49:07;;;;;;;3.92;1.60;;;;;;;;;;4954285;28;20069;-71
2024/01/09 05:51:34;;;;;;;9.15;1.92;;;;;;;;;;4953140;28;20085;-71
2024/01/09 05:54:02;;;;;;;5.15;1.90;;;;;;;;;;4951087;28;20055;-70
2024/01/09 05:56:30;;;;;;;5.10;2.17;;;;;;;;;;4970969;28;20065;-71
2024/01/09 05:58:57;;;;;;;6.05;1.75;;;;;;;;;;4961729;28;20407;-70
2024/01/09 06:01:25;;;;;;;6.20;1.77;;;;;;;;;;4966107;28;20051;-71
2024/01/09 06:03:52;;;;;;;6.15;1.95;;;;;;;;;;4968112;28;20069;-71
2024/01/09 06:06:19;;;;;;;6.53;2.13;;;;;;;;;;4964621;28;20051;-71
2024/01/09 06:08:48;;;;;;;4.00;1.50;;;;;;;;;;4964601;28;20054;-71
2024/01/09 06:11:16;;;;;;;4.55;1.88;;;;;;;;;;4965326;28;20046;-71
2024/01/09 06:13:44;;;;;;;5.32;2.13;;;;;;;;;;4972124;28;20057;-69
2024/01/09 06:16:12;;;;;;;5.72;1.88;;;;;;;;;;4952935;28;20053;-70
2024/01/09 06:18:39;;;;;;;5.45;1.90;;;;;;;;;;4969676;28;20073;-71
2024/01/09 06:21:06;;;;;;;4.90;2.05;;;;;;;;;;4951500;28;20047;-72
2024/01/09 06:23:33;;;;;;;4.68;1.80;;;;;;;;;;4967916;28;20058;-72
2024/01/09 06:26:01;;;;;;;7.60;1.75;;;;;;;;;;4951208;28;20109;-71
2024/01/09 06:28:29;;;;;;;6.13;2.15;;;;;;;;;;4970615;28;20047;-72
2024/01/09 06:30:58;;;;;;;7.43;1.80;;;;;;;;;;4966139;28;20057;-70
2024/01/09 06:33:25;;;;;;;5.50;2.15;;;;;;;;;;4964631;28;20043;-72
2024/01/09 06:35:53;;;;;;;6.85;2.30;;;;;;;;;;4966804;28;20050;-71
2024/01/09 06:38:20;;;;;;;5.30;2.05;;;;;;;;;;4951098;28;20055;-73
2024/01/09 06:40:47;;;;;;;5.05;1.80;;;;;;;;;;4965722;28;20046;-70
2024/01/09 06:43:15;;;;;;;7.38;2.30;;;;;;;;;;4967801;28;20078;-70
2024/01/09 06:45:43;;;;;;;2.92;1.70;;;;;;;;;;4966183;28;20478;-71
2024/01/09 06:48:12;;;;;;;6.75;2.30;;;;;;;;;;4967308;28;20047;-71
2024/01/09 06:50:39;;;;;;;6.35;1.90;;;;;;;;;;4965279;28;20065;-71
2024/01/09 06:53:07;;;;;;;7.15;2.03;;;;;;;;;;4965324;28;20046;-70
2024/01/09 06:55:34;;;;;;;5.05;1.85;;;;;;;;;;4959505;28;20043;-70
2024/01/09 06:58:01;;;;;;;4.78;2.13;;;;;;;;;;4948335;28;20046;-71
2024/01/09 07:00:29;;;;;;;7.88;1.83;;;;;;;;;;4958917;28;20498;-71
2024/01/09 07:02:56;;;;;;;4.72;2.03;;;;;;;;;;4957838;28;20065;-70
2024/01/09 07:05:25;;;;;;;4.90;1.83;;;;;;;;;;4958542;28;20486;-70
2024/01/09 07:07:52;;;;;;;4.80;1.90;;;;;;;;;;4960826;28;20046;-70
2024/01/09 07:10:20;;;;;;;7.68;2.08;;;;;;;;;;4957138;28;20411;-71
2024/01/09 07:12:47;;;;;;;3.42;2.00;;;;;;;;;;4957257;28;20054;-71
2024/01/09 07:15:14;;;;;;;5.20;2.20;;;;;;;;;;4957008;28;20073;-71
2024/01/09 07:17:42;;;;;;;8.13;2.58;;;;;;;;;;4957591;28;20494;-71
2024/01/09 07:20:09;;;;;;;6.65;2.10;;;;;;;;;;4958737;28;20043;-71
2024/01/09 07:22:38;;;;;;;4.38;2.15;;;;;;;;;;4960545;28;20053;-70
2024/01/09 07:25:06;;;;;;;6.95;2.47;;;;;;;;;;4956565;28;20434;-71
2024/01/09 07:27:33;;;;;;;5.20;1.90;;;;;;;;;;4960547;28;20042;-71
2024/01/09 07:30:01;;;;;;;5.82;1.95;;;;;;;;;;4959332;28;20051;-71
2024/01/09 07:32:28;;;;;;;6.90;2.28;;;;;;;;;;4956055;28;20051;-70
2024/01/09 07:34:55;;;;;;;5.72;1.90;;;;;;;;;;4956044;28;20050;-71
2024/01/09 07:37:23;;;;;;;6.65;2.28;;;;;;;;;;4959332;28;20043;-69
2024/01/09 07:39:51;;;;;;;5.47;2.58;;;;;;;;;;4959436;28;20058;-71
2024/01/09 07:42:18;;;;;;;7.18;2.25;;;;;;;;;;4960703;28;20047;-71
2024/01/09 07:44:46;;;;;;;6.65;2.17;;;;;;;;;;4955665;28;20062;-71
2024/01/09 07:47:13;;;;;;;7.15;2.00;;;;;;;;;;4960311;28;20055;-71
2024/01/09 07:49:41;;;;;;;8.07;2.50;;;;;;;;;;4969411;28;20055;-71
2024/01/09 07:52:08;;;;;;;5.82;1.98;;;;;;;;;;4968630;28;20051;-71
2024/01/09 07:54:35;;;;;;;6.15;2.10;;;;;;;;;;4966286;28;20051;-70
2024/01/09 07:57:04;;;;;;;10.70;2.13;;;;;;;;;;4969561;28;20078;-71
2024/01/09 07:59:31;;;;;;;5.28;2.08;;;;;;;;;;4970689;28;20065;-70
2024/01/09 08:02:00;;;;;;;4.20;1.95;;;;;;;;;;4967568;28;20051;-70
2024/01/09 08:04:27;;;;;;;6.35;2.47;;;;;;;;;;4970517;28;20058;-71
2024/01/09 08:07:04;;;;;;;6.45;2.00;;;;;;;;;;5131718;27;20440;-71
2024/01/09 08:09:32;;;;;;;5.07;2.30;;;;;;;;;;5120260;28;20116;-71
2024/01/09 08:11:59;;;;;;;6.97;2.30;;;;;;;;;;5121943;28;20047;-69
2024/01/09 08:14:26;;;;;;;6.57;2.13;;;;;;;;;;5123279;28;20043;-70
2024/01/09 08:16:53;;;;;;;6.35;2.40;;;;;;;;;;5114291;28;20047;-69
2024/01/09 08:19:21;;;;;;;7.97;2.22;;;;;;;;;;5111992;28;20055;-69
2024/01/09 08:21:48;;;;;;;6.28;2.17;;;;;;;;;;5096036;28;20056;-70
2024/01/09 08:24:18;;;;;;;6.75;2.30;;;;;;;;;;5120315;28;20039;-70
2024/01/09 08:26:47;;;;;;;3.80;2.03;;;;;;;;;;5100467;28;20512;-71
2024/01/09 08:29:14;;;;;;;5.05;2.00;;;;;;;;;;5116592;28;20126;-70
2024/01/09 08:31:44;;;;;;;7.47;2.40;;;;;;;;;;5122160;28;20075;-70
2024/01/09 08:34:11;;;;;;;5.63;2.13;;;;;;;;;;5113686;28;20051;-71
2024/01/09 08:36:38;;;;;;;6.07;2.13;;;;;;;;;;5123967;28;20058;-70
2024/01/09 08:39:05;;;;;;;8.00;2.40;;;;;;;;;;5099357;28;20048;-70
2024/01/09 08:41:34;;;;;;;6.57;2.10;;;;;;;;;;5114306;28;20386;-70
2024/01/09 08:44:01;;;;;;;6.03;2.33;;;;;;;;;;5125603;28;20137;-70
2024/01/09 08:46:28;;;;;;;9.32;2.40;;;;;;;;;;5121644;28;20031;-70
2024/01/09 08:48:56;;;;;;;6.70;2.00;;;;;;;;;;5114086;28;20065;-70
2024/01/09 08:51:24;;;;;;;6.45;2.00;;;;;;;;;;5124472;28;20050;-70
2024/01/09 08:53:53;;;;;;;3.83;1.90;;;;;;;;;;5116990;28;20062;-70
2024/01/09 08:56:23;;;;;;;4.07;2.00;;;;;;;;;;5119262;28;20051;-70
2024/01/09 08:58:52;;;;;;;4.65;1.83;;;;;;;;;;5122895;28;20055;-70
2024/01/09 09:01:20;;;;;;;5.15;1.85;;;;;;;;;;5121550;28;20044;-70
2024/01/09 09:03:47;;;;;;;3.88;1.80;;;;;;;;;;5108405;28;20100;-69
2024/01/09 09:06:16;;;;;;;3.88;1.65;;;;;;;;;;5109894;28;20067;-70
2024/01/09 09:08:43;;;;;;;4.65;1.90;;;;;;;;;;5116059;28;20083;-68
2024/01/09 09:11:14;;;;;;;5.20;2.05;;;;;;;;;;5116949;28;20039;-70
2024/01/09 09:13:42;;;;;;;4.68;1.83;;;;;;;;;;5122485;28;20486;-70
2024/01/09 09:16:10;;;;;;;4.10;1.73;;;;;;;;;;5106237;28;20407;-70
2024/01/09 09:18:38;;;;;;;4.40;1.73;;;;;;;;;;5095876;28;20133;-70
2024/01/09 09:21:05;;;;;;;7.68;2.08;;;;;;;;;;5082060;28;20087;-70
2024/01/09 09:23:33;;;;;;;6.75;2.10;;;;;;;;;;5098503;28;20043;-70
2024/01/09 09:26:00;;;;;;;4.50;2.03;;;;;;;;;;5094813;28;20052;-70
2024/01/09 09:28:28;;;;;;;4.22;1.80;;;;;;;;;;5097239;28;20039;-69
2024/01/09 09:30:55;;;;;;;3.78;1.83;;;;;;;;;;5100307;28;20525;-70
2024/01/09 09:33:23;;;;;;;6.70;2.15;;;;;;;;;;5104867;28;20047;-70
2024/01/09 09:35:51;;;;;;;5.10;1.80;;;;;;;;;;5108827;28;20406;-70
2024/01/09 09:38:18;;;;;;;3.20;1.40;;;;;;;;;;5103782;28;20044;-69
2024/01/09 09:40:45;;;;;;;4.90;2.13;;;;;;;;;;5108000;28;20126;-70
2024/01/09 09:43:16;;;;;;;4.28;1.52;;;;;;;;;;5102229;28;20440;-70
2024/01/09 09:45:44;;;;;;;5.00;1.88;;;;;;;;;;5095148;28;20052;-70
2024/01/09 09:48:12;;;;;;;4.40;2.00;;;;;;;;;;5093992;28;20048;-70
2024/01/09 09:50:42;;;;;;;4.88;1.83;;;;;;;;;;5098140;28;20043;-70
2024/01/09 09:53:10;;;;;;;5.60;1.80;;;;;;;;;;5107247;28;20509;-70
2024/01/09 09:55:38;;;;;;;3.90;1.60;;;;;;;;;;5103214;28;20136;-70
2024/01/09 09:58:05;;;;;;;5.22;1.80;;;;;;;;;;5095886;28;20048;-70
2024/01/09 10:00:32;;;;;;;4.00;1.75;;;;;;;;;;5083656;28;20056;-70
2024/01/09 10:03:01;;;;;;;3.97;1.63;;;;;;;;;;5099465;28;20152;-69
2024/01/09 10:05:28;;;;;;;5.10;2.03;;;;;;;;;;5098785;28;20052;-71
2024/01/09 10:07:58;;;;;;;3.83;1.70;;;;;;;;;;5102356;28;20088;-70
2024/01/09 10:10:25;;;;;;;5.18;1.85;;;;;;;;;;5093585;28;20048;-71
2024/01/09 10:12:56;;;;;;;3.08;1.45;;;;;;;;;;5083092;28;20059;-71
2024/01/09 10:15:24;;;;;;;2.67;1.30;;;;;;;;;;5102237;28;20058;-70
2024/01/09 10:17:53;;;;;;;3.67;1.70;;;;;;;;;;5096484;28;20490;-70
2024/01/09 10:20:20;;;;;;;6.20;1.85;;;;;;;;;;5093438;28;20056;-70
2024/01/09 10:22:48;;;;;;;3.70;1.80;;;;;;;;;;5102011;28;20043;-70
2024/01/09 10:25:17;;;;;;;2.65;1.40;;;;;;;;;;5091898;28;20123;-70
2024/01/09 10:27:45;;;;;;;3.22;1.60;;;;;;;;;;5079439;28;20047;-70
2024/01/09 10:30:12;;;;;;;4.32;1.63;;;;;;;;;;5097032;28;20059;-70
2024/01/09 10:32:40;;;;;;;3.40;1.83;;;;;;;;;;5103578;28;20450;-71
2024/01/09 10:35:08;;;;;;;4.53;1.88;;;;;;;;;;5094030;28;20043;-71
2024/01/09 10:37:36;;;;;;;3.72;1.73;;;;;;;;;;5098778;28;20077;-70
2024/01/09 10:40:04;;;;;;;4.82;1.55;;;;;;;;;;5103570;28;20415;-70
2024/01/09 10:42:33;;;;;;;3.63;1.75;;;;;;;;;;5107271;28;20066;-70
2024/01/09 10:45:00;;;;;;;3.22;1.48;;;;;;;;;;5084543;28;20407;-70
2024/01/09 10:47:29;;;;;;;3.42;1.52;;;;;;;;;;5099847;28;20044;-71
2024/01/09 10:49:56;;;;;;;5.35;1.90;;;;;;;;;;5096209;28;20051;-70
2024/01/09 10:52:29;;;;;;;3.47;1.70;;;;;;;;;;5099094;28;20055;-71
2024/01/09 10:54:57;;;;;;;4.40;1.88;;;;;;;;;;5101999;28;20490;-71
2024/01/09 10:57:25;;;;;;;4.53;1.40;;;;;;;;;;5095554;28;20501;-71
2024/01/09 10:59:55;;;;;;;5.65;2.00;;;;;;;;;;5100071;28;20380;-71
2024/01/09 11:02:22;;;;;;;3.15;1.52;;;;;;;;;;5084177;28;20051;-71
2024/01/09 11:04:50;;;;;;;3.35;1.80;;;;;;;;;;5107486;28;20047;-71
2024/01/09 11:07:18;;;;;;;2.78;1.50;;;;;;;;;;5099487;28;20040;-71
2024/01/09 11:09:46;;;;;;;3.78;1.30;;;;;;;;;;5101735;28;20063;-71
2024/01/09 11:12:18;;;;;;;3.38;1.50;;;;;;;;;;5098425;28;20052;-72
2024/01/09 11:14:47;;;;;;;3.95;1.70;;;;;;;;;;5100103;28;20123;-71
2024/01/09 11:17:18;;;;;;;2.17;1.20;;;;;;;;;;5103832;28;20044;-71
2024/01/09 11:19:45;;;;;;;2.60;1.13;;;;;;;;;;5105770;28;20043;-71
2024/01/09 11:22:17;;;;;;;3.75;1.58;;;;;;;;;;5102836;28;20048;-72
2024/01/09 11:24:47;;;;;;;3.88;1.40;;;;;;;;;;5098296;28;20050;-71
2024/01/09 11:27:14;;;;;;;3.75;1.33;;;;;;;;;;5106196;28;20048;-71
2024/01/09 11:29:47;;;;;;;4.00;1.35;;;;;;;;;;5098908;28;20059;-71
2024/01/09 11:32:16;;;;;;;3.50;1.30;;;;;;;;;;5102391;28;20048;-71
2024/01/09 11:34:44;;;;;;;2.95;1.30;;;;;;;;;;5104221;28;20039;-70
2024/01/09 11:37:13;;;;;;;3.30;1.40;;;;;;;;;;5099358;28;20054;-71
2024/01/09 11:39:40;;;;;;;3.65;1.48;;;;;;;;;;5093822;28;20070;-72
2024/01/09 11:42:08;;;;;;;2.78;1.30;;;;;;;;;;5100832;28;20540;-71
2024/01/09 11:44:35;;;;;;;2.42;1.35;;;;;;;;;;5106029;28;20047;-71
2024/01/09 11:47:03;;;;;;;3.63;1.35;;;;;;;;;;5104497;28;20063;-71
2024/01/09 11:49:31;;;;;;;3.28;1.30;;;;;;;;;;5092533;28;20036;-71
2024/01/09 11:51:59;;;;;;;3.78;2.08;;;;;;;;;;5089693;28;20052;-71
2024/01/09 11:54:27;;;;;;;6.63;1.45;;;;;;;;;;5084348;28;20044;-70
2024/01/09 11:56:54;;;;;;;4.80;1.23;;;;;;;;;;5083275;28;20056;-71
2024/01/09 11:59:21;;;;;;;3.10;1.33;;;;;;;;;;5099911;28;20079;-71
2024/01/09 12:01:49;;;;;;;6.05;1.40;;;;;;;;;;5097887;28;20047;-70
2024/01/09 12:04:16;;;;;;;3.53;1.20;;;;;;;;;;5092701;28;20048;-71
2024/01/09 12:06:47;;;;;;;2.72;1.20;;;;;;;;;;5081676;28;20055;-70
2024/01/09 12:09:14;;;;;;;2.70;1.10;;;;;;;;;;5096101;28;20051;-71
2024/01/09 12:11:41;;;;;;;4.70;1.30;;;;;;;;;;5108685;28;20066;-71
2024/01/09 12:14:09;;;;;;;6.63;1.90;;;;;;;;;;5104381;28;20459;-71
2024/01/09 12:16:36;;;;;;;3.40;1.20;;;;;;;;;;5100415;28;20153;-71
2024/01/09 12:19:03;;;;;;;3.25;1.33;;;;;;;;;;5091737;28;20047;-71
2024/01/09 12:21:32;;;;;;;4.80;1.17;;;;;;;;;;5104859;28;20155;-71
2024/01/09 12:24:02;;;;;;;3.17;1.17;;;;;;;;;;5098379;28;20047;-71
2024/01/09 12:26:29;;;;;;;2.70;1.33;;;;;;;;;;5094007;28;20123;-71
2024/01/09 12:28:57;;;;;;;5.35;1.35;;;;;;;;;;5088070;28;20079;-71
2024/01/09 12:31:25;;;;;;;2.95;1.08;;;;;;;;;;5081038;28;20048;-71
2024/01/09 12:33:55;;;;;;;2.30;1.00;;;;;;;;;;5103558;28;20053;-70
2024/01/09 12:36:23;;;;;;;2.13;1.00;;;;;;;;;;5097732;28;20177;-70
2024/01/09 12:38:51;;;;;;;2.70;1.00;;;;;;;;;;5101767;28;20509;-70
2024/01/09 12:41:23;;;;;;;2.47;1.05;;;;;;;;;;5202644;22;20039;-68
2024/01/09 12:43:51;;;;;;;3.03;0.75;;;;;;;;;;4962640;28;20062;-68
2024/01/09 12:46:21;;;;;;;1.33;0.70;;;;;;;;;;4966285;28;20050;-69
2024/01/09 12:48:48;;;;;;;2.20;1.10;;;;;;;;;;4960521;28;20075;-68
2024/01/09 12:51:16;;;;;;;2.42;1.00;;;;;;;;;;4964992;28;20059;-69
2024/01/09 12:53:43;;;;;;;3.65;1.13;;;;;;;;;;4965832;28;20074;-69
2024/01/09 12:56:13;;;;;;;2.80;0.80;;;;;;;;;;4966727;28;20054;-69
2024/01/09 12:58:45;;;;;;;2.38;0.80;;;;;;;;;;4967226;28;20134;-69
2024/01/09 13:01:13;;;;;;;3.22;1.20;;;;;;;;;;4972473;28;20733;-68
2024/01/09 13:03:41;;;;;;;2.33;0.98;;;;;;;;;;4969130;28;20529;-69
2024/01/09 13:06:11;;;;;;;2.58;1.02;;;;;;;;;;4971931;28;20691;-69
2024/01/09 13:08:38;;;;;;;5.20;0.90;;;;;;;;;;4968531;28;20050;-68
2024/01/09 13:11:09;;;;;;;1.45;0.65;;;;;;;;;;4971318;28;20047;-69
2024/01/09 13:13:37;;;;;;;3.50;0.80;;;;;;;;;;4972190;28;20058;-69
2024/01/09 13:16:06;;;;;;;1.92;0.80;;;;;;;;;;4960865;28;20054;-68
2024/01/09 13:18:34;;;;;;;2.60;0.82;;;;;;;;;;4971134;28;20482;-69
2024/01/09 13:21:02;;;;;;;2.15;0.80;;;;;;;;;;4965424;28;20482;-69
2024/01/09 13:23:30;;;;;;;2.03;0.85;;;;;;;;;;4970848;28;20113;-69
2024/01/09 13:26:01;;;;;;;3.17;1.00;;;;;;;;;;4972420;28;20081;-69
2024/01/09 13:28:28;;;;;;;1.95;0.65;;;;;;;;;;4970970;28;20046;-69
2024/01/09 13:30:56;;;;;;;1.55;0.90;;;;;;;;;;4972590;28;20637;-69
2024/01/09 13:33:24;;;;;;;1.45;0.77;;;;;;;;;;4971572;28;20542;-69
2024/01/09 13:35:52;;;;;;;1.95;0.90;;;;;;;;;;4971044;28;20065;-69
2024/01/09 13:38:19;;;;;;;2.67;0.82;;;;;;;;;;4973065;28;20513;-69
2024/01/09 13:40:48;;;;;;;2.35;0.90;;;;;;;;;;4976339;28;20074;-69
2024/01/09 13:43:15;;;;;;;3.10;1.00;;;;;;;;;;4967890;28;20054;-69
2024/01/09 13:45:43;;;;;;;1.73;0.73;;;;;;;;;;4971023;28;20559;-69
2024/01/09 13:48:12;;;;;;;2.30;1.00;;;;;;;;;;4971946;28;20051;-69
2024/01/09 13:50:42;;;;;;;2.65;0.80;;;;;;;;;;4967262;28;20055;-69
2024/01/09 13:53:09;;;;;;;2.15;0.70;;;;;;;;;;4972404;28;20058;-69
2024/01/09 13:55:36;;;;;;;1.58;0.70;;;;;;;;;;4970591;28;20148;-69
2024/01/09 13:58:04;;;;;;;1.50;0.70;;;;;;;;;;4971995;28;20490;-69
2024/01/09 14:00:32;;;;;;;1.85;0.63;;;;;;;;;;4969328;28;20805;-69
2024/01/09 14:03:00;;;;;;;1.67;0.70;;;;;;;;;;4971599;28;20157;-69
2024/01/09 14:05:28;;;;;;;1.25;0.68;;;;;;;;;;4971543;28;20409;-69
2024/01/09 14:07:57;;;;;;;2.67;1.02;;;;;;;;;;4971307;28;20054;-69
2024/01/09 14:10:24;;;;;;;3.22;0.73;;;;;;;;;;4970412;28;20065;-69
2024/01/09 14:12:51;;;;;;;1.75;0.70;;;;;;;;;;4971076;28;20363;-69
2024/01/09 14:15:18;;;;;;;2.22;1.00;;;;;;;;;;4969262;28;20506;-69
2024/01/09 14:17:46;;;;;;;1.58;0.70;;;;;;;;;;4967932;28;20050;-69
2024/01/09 14:20:13;;;;;;;2.33;0.85;;;;;;;;;;4970544;28;20047;-69
2024/01/09 14:22:41;;;;;;;1.42;0.70;;;;;;;;;;4971299;28;20053;-69
2024/01/09 14:25:09;;;;;;;1.90;0.60;;;;;;;;;;4968436;28;20085;-69
2024/01/09 14:27:37;;;;;;;1.67;0.80;;;;;;;;;;4965045;28;20055;-69
2024/01/09 14:30:06;;;;;;;2.33;0.77;;;;;;;;;;4969015;28;20062;-69
2024/01/09 14:32:34;;;;;;;1.52;0.60;;;;;;;;;;4971195;28;20426;-69
2024/01/09 14:35:02;;;;;;;2.88;1.08;;;;;;;;;;4968700;28;20055;-69
2024/01/09 14:37:29;;;;;;;1.83;0.70;;;;;;;;;;4971675;28;20046;-69
2024/01/09 14:39:56;;;;;;;2.13;1.08;;;;;;;;;;4970299;28;20061;-69
2024/01/09 14:42:25;;;;;;;1.40;0.80;;;;;;;;;;4971092;28;20149;-69
2024/01/09 14:44:54;;;;;;;1.77;0.73;;;;;;;;;;4969571;28;20159;-69
2024/01/09 14:47:22;;;;;;;34.97;9.63;;;;;;;;;;4971212;28;20042;-69